ハリファックス の空港の天気 - METARとTAF

ハリファックス国際空港 ( CYHZ / YHZ ) - カナダ ノバスコシア州ハリファックス
飛行場実況気象(Metar)
観測時間10/23 23:49 ADT (10/24 02:49 UTC)
風向・風速南西 7m/s
視程10km以上
天気現象
全天を覆う雲 雲底高度 150m
気温14℃
湿度100%
気圧1008.5hPa
METARCYHZ 240249Z 23013KT 15SM OVC005 14/14 A2977 RMK ST8 SLP085 DENSITY ALT 700FT
過去の天気等 Google飛行場航空写真 Wunderground天気予報

過去48時間のMETAR

飛行場予報(TAF)
発表時間: 10/23 23:38 ADT (10/24 02:38 UTC)
予報対象時間: 24日0時 ADT ~ 24日21時 ADT
風向・風速南西 6m/s 瞬間風速 13m/s
視程3220m
天気現象弱い雨 弱い霧雨 もや
全天を覆う雲 雲底高度 30m
24日0時 ADT ~ 24日3時 ADT に一時的に
視程10km以上
天気現象もや
全天の4割程度の雲 雲底高度 30m
全天を覆う雲 雲底高度 120m
24日3時 ADT から
風向・風速西 8m/s 瞬間風速 13m/s
視程10km以上
全天の8割程度の雲 雲底高度 240m
24日3時 ADT ~ 24日7時 ADT に一時的に
少しの雲 雲底高度 240m
全天の4割程度の雲 雲底高度 460m
24日7時 ADT から
風向・風速西 8m/s 瞬間風速 13m/s
視程10km以上
全天の8割程度の雲 雲底高度 460m
24日7時 ADT ~ 24日14時 ADT に一時的に
全天の8割程度の雲 雲底高度 760m
24日7時 ADT ~ 24日9時 ADT に徐々に
風向・風速西 6m/s 瞬間風速 11m/s
24日14時 ADT から
風向・風速西 6m/s 瞬間風速 11m/s
視程10km以上
全天の4割程度の雲 雲底高度 760m
24日20時 ADT から
風向・風速西南西 4m/s
視程10km以上
少しの雲 雲底高度 6100m
TAF CYHZ 240238Z 2403/2424 23012G25KT 2SM -RA -DZ BR OVC001
TEMPO 2403/2406 6SM BR SCT001 OVC004
FM240600 27015G25KT P6SM BKN008
TEMPO 2406/2410 FEW008 SCT015
FM241000 28015G25KT P6SM BKN015
TEMPO 2410/2417 BKN025
BECMG 2410/2412 28012G22KT
FM241700 27012G22KT P6SM SCT025
FM242300 24008KT P6SM FEW200 RMK NXT FCST BY 240600Z